Carmel-by-the-Sea, CA

2:54 AM PDT on September 16, 2014 (GMT -0700)
Watsonville Municipal | Change Station
CLOSE
Current Station
Airport
Location: Watsonville,
Elevation: 161 ft
Nearby Weather Stations

Elev 161 ft 36.94 °N, 121.79 °W | Updated 1 hour ago

Clear
Clear
58 °F
Feels Like 58 °F
N
5
Wind Variable Wind from NW

Today
High -- | Low -- °F
--% Chance of Precip.
Yesterday
High -- | Low -- °F
Precip. -- in
6:50 AM 7:13 PM
Waning Gibbous, 47% visible
Pressure 29.94 in
Visibility 10.0 miles
Clouds Clear
Dew Point 52 °F
Humidity 81%
Rainfall 0.00 in
Snow Depth 1 in , 0 in , 0 in
UV 0 out of 12
Pollen 5.40 out of 12
Air Quality Not available.
Flu Activity Not available.
METAR KWVI 160853Z AUTO 32004KT 10SM CLR 14/11 A2994 RMK AO2 SLP137 T01440111 50000

More Conditions Fewer Conditions

Pressure 29.94 in
Visibility 10.0 miles
Clouds Clear
Dew Point 52 °F
Humidity 81%
Rainfall 0.00 in
Snow Depth 1 in , 0 in , 0 in
UV 0 out of 12
Pollen 5.40 out of 12
Air Quality Not available.
Flu Activity Not available.
METAR KWVI 160853Z AUTO 32004KT 10SM CLR 14/11 A2994 RMK AO2 SLP137 T01440111 50000

More Conditions Fewer Conditions

10-Day Weather Forecast

Almanac

Astronomy

Sep. 16, 2014 Rise Set
Actual Time 6:50 AM PDT 7:13 PM PDT
Civil Twilight 6:24 AM PDT 7:39 PM PDT
Nautical Twilight 5:54 AM PDT 8:09 PM PDT
Astronomical Twilight 5:23 AM PDT 8:40 PM PDT
Moon 12:11 AM PDT 2:34 PM PDT
Length of Visible Light 13h 14m
Length of Day
12h 22m
Tomorrow will be 2m 18s shorter.
Waning Gibbous, 47% of the Moon is Illuminated
Today
Waning Gibbous
Sep 24
New
Oct 1
First Quarter
Oct 8
Full
Oct 15
Last Quarter

Today's Extremes

State Highs State Lows

Community

WunderPhotos

Upload Photos

1,753,714 photos uploaded!

WunderBlogs® & News

Nearby

Snow Depth

Station Depth Elevation
Spratt Creek 1 in 6200 ft
Monitor Pass 0 in 8350 ft
Leavitt Meadows 0 in 7200 ft
Hagan's Meadow 1 in 8000 ft
Echo Peak 0 in 7800 ft

Earthquake Activity

City Distance Mag. Time & Date
No recent earthquake activity has been reported nearby.
Minimum magnitude displayed is 2.5.

Coastal Water Temperatures

Place Temperature
Monterey, CA 57.9 °F
Port San Luis, CA 62.1 °F

Nearby Weather Stations